Osservazioni METAR vicini

 

LIRI - Pontecagnano, Italia
Distanza dalla stazione: SSE 18 Km
Dati ricevuti: 12/04/2024 16:50
Dati obsoleti
Sereno
Sereno
 Vento da SO
Vento: SO 7 Km/h
Temperatura: 23 °C
P.to rugiada: 14 °C
Umidità: 57%
Barometro: 1023 hPa
Riepilogo: Sereno
Visibilità: superiore a 10 Km
2024/04/12 14:50 LIRI 121450Z 23004KT 170V280 CAVOK 23/14 Q1023
LIRN - Napoli/Capodichino, Italia
Distanza dalla stazione: ONO 47 Km
Dati ricevuti: 13/04/2024 07:50
Sereno
Sereno
 Vento da NO
Vento: NO 7 Km/h
Temperatura: 18 °C
P.to rugiada: 10 °C
Umidità: 60%
Barometro: 1025 hPa
Riepilogo: Sereno
Visibilità: superiore a 10 Km
2024/04/13 05:50 LIRN 130550Z 32004KT 290V020 CAVOK 18/10 Q1025 NOSIG
 
LIRT - Trevico, Italia
Distanza dalla stazione: NE 44 Km
Dati ricevuti: 12/04/2024 19:55
Dati obsoleti

 
2024/04/12 17:55 LIRT 121755Z ///06KT CAVOK 14/05 Q1028
LIQC - Isola di Capri, Italia
Distanza dalla stazione: OSO 58 Km
Dati ricevuti: 13/04/2024 06:55
Sereno
Sereno
 Vento da NNE
Vento: NNE 6 Km/h
Temperatura: 16 °C
P.to rugiada: 12 °C
Umidità: 77%
Barometro: 1025 hPa
Riepilogo: Sereno
Visibilità: superiore a 10 Km
2024/04/13 04:55 LIQC 130455Z 03003KT CAVOK 16/12 Q1025 RMK SKC QUK 1 QUL 0 VIS MAR 15 KM VIS MIN 9999
 
LIRM - Grazzanise, Italia
Distanza dalla stazione: ONO 71 Km
Dati ricevuti: 13/04/2024 06:55
Sereno
Sereno
 Vento da N
Vento: N 9 Km/h
Temperatura: 12 °C
P.to rugiada: 11 °C
Umidità: 94%
Barometro: 1024 hPa
Riepilogo: Sereno
Visibilità: superiore a 10 Km
2024/04/13 04:55 LIRM 130455Z 35005KT CAVOK 12/11 Q1024